sensor_id;sensor_type;location;lat;lon;timestamp;pressure;altitude;pressure_sealevel;temperature;humidity
59829;BME280;45708;51.848;107.620;2023-03-19T00:03:40;94339.03;;;0.40;51.19
59829;BME280;45708;51.848;107.620;2023-03-19T00:08:41;94341.91;;;1.93;47.49
59829;BME280;45708;51.848;107.620;2023-03-19T00:13:42;94318.56;;;2.70;45.14
59829;BME280;45708;51.848;107.620;2023-03-19T00:18:43;94331.97;;;3.64;43.17
59829;BME280;45708;51.848;107.620;2023-03-19T00:23:44;94329.16;;;4.53;41.96
59829;BME280;45708;51.848;107.620;2023-03-19T00:28:44;94331.41;;;4.82;40.28
59829;BME280;45708;51.848;107.620;2023-03-19T00:33:45;94326.34;;;5.85;38.89
59829;BME280;45708;51.848;107.620;2023-03-19T00:38:46;94319.81;;;6.70;37.34
59829;BME280;45708;51.848;107.620;2023-03-19T00:43:54;94313.97;;;7.37;36.37
59829;BME280;45708;51.848;107.620;2023-03-19T00:48:55;94314.00;;;8.51;35.34
59829;BME280;45708;51.848;107.620;2023-03-19T00:53:56;94308.78;;;10.77;32.17
59829;BME280;45708;51.848;107.620;2023-03-19T00:58:57;94292.78;;;11.56;31.42
59829;BME280;45708;51.848;107.620;2023-03-19T01:03:57;94303.31;;;11.34;31.53
59829;BME280;45708;51.848;107.620;2023-03-19T01:08:58;94304.25;;;12.22;30.42
59829;BME280;45708;51.848;107.620;2023-03-19T01:13:59;94299.25;;;12.79;29.87
59829;BME280;45708;51.848;107.620;2023-03-19T01:19:01;94302.09;;;13.32;28.99
59829;BME280;45708;51.848;107.620;2023-03-19T01:24:01;94304.91;;;13.20;28.09
59829;BME280;45708;51.848;107.620;2023-03-19T01:29:02;94288.84;;;13.37;27.57
59829;BME280;45708;51.848;107.620;2023-03-19T01:34:03;94296.06;;;12.51;27.69
59829;BME280;45708;51.848;107.620;2023-03-19T01:39:04;94302.78;;;11.32;28.27
59829;BME280;45708;51.848;107.620;2023-03-19T01:44:27;94302.97;;;10.47;29.83
59829;BME280;45708;51.848;107.620;2023-03-19T01:49:29;94286.47;;;10.40;28.71
59829;BME280;45708;51.848;107.620;2023-03-19T01:54:31;94288.41;;;10.44;28.69
59829;BME280;45708;51.848;107.620;2023-03-19T01:59:35;94274.44;;;9.63;28.39
59829;BME280;45708;51.848;107.620;2023-03-19T02:04:38;94282.81;;;10.00;28.67
59829;BME280;45708;51.848;107.620;2023-03-19T02:09:41;94290.00;;;10.45;28.26
59829;BME280;45708;51.848;107.620;2023-03-19T02:14:42;94276.13;;;9.81;28.88
59829;BME280;45708;51.848;107.620;2023-03-19T02:30:46;94282.03;;;3.39;37.12
59829;BME280;45708;51.848;107.620;2023-03-19T02:35:49;94264.91;;;2.33;39.46
59829;BME280;45708;51.848;107.620;2023-03-19T02:40:55;94280.91;;;1.80;40.03
59829;BME280;45708;51.848;107.620;2023-03-19T02:45:59;94286.97;;;1.51;40.56
59829;BME280;45708;51.848;107.620;2023-03-19T02:51:00;94278.69;;;1.27;41.75
59829;BME280;45708;51.848;107.620;2023-03-19T02:56:01;94272.84;;;1.25;41.71
59829;BME280;45708;51.848;107.620;2023-03-19T03:01:02;94267.84;;;1.08;42.40
59829;BME280;45708;51.848;107.620;2023-03-19T03:06:02;94265.84;;;1.10;42.56
59829;BME280;45708;51.848;107.620;2023-03-19T03:11:04;94256.69;;;1.14;43.01
59829;BME280;45708;51.848;107.620;2023-03-19T03:16:05;94256.25;;;1.26;43.13
59829;BME280;45708;51.848;107.620;2023-03-19T03:21:06;94251.28;;;1.45;43.15
59829;BME280;45708;51.848;107.620;2023-03-19T03:26:07;94233.38;;;1.57;43.14
59829;BME280;45708;51.848;107.620;2023-03-19T03:31:08;94224.13;;;1.55;43.74
59829;BME280;45708;51.848;107.620;2023-03-19T03:36:09;94217.88;;;1.70;43.73
59829;BME280;45708;51.848;107.620;2023-03-19T03:41:10;94206.84;;;1.90;43.28
59829;BME280;45708;51.848;107.620;2023-03-19T03:46:11;94200.03;;;1.89;43.40
59829;BME280;45708;51.848;107.620;2023-03-19T03:51:12;94204.19;;;2.04;44.11
59829;BME280;45708;51.848;107.620;2023-03-19T03:56:12;94190.69;;;2.22;43.48
59829;BME280;45708;51.848;107.620;2023-03-19T04:01:17;94180.81;;;2.46;45.24
59829;BME280;45708;51.848;107.620;2023-03-19T04:06:21;94170.53;;;2.72;42.94
59829;BME280;45708;51.848;107.620;2023-03-19T04:11:22;94166.91;;;2.66;44.05
59829;BME280;45708;51.848;107.620;2023-03-19T04:16:23;94161.72;;;2.73;43.58
59829;BME280;45708;51.848;107.620;2023-03-19T04:21:24;94161.22;;;2.97;43.98
59829;BME280;45708;51.848;107.620;2023-03-19T04:26:25;94141.41;;;3.10;43.63
59829;BME280;45708;51.848;107.620;2023-03-19T04:31:26;94139.00;;;3.15;43.11
59829;BME280;45708;51.848;107.620;2023-03-19T04:36:28;94122.53;;;3.14;43.19
59829;BME280;45708;51.848;107.620;2023-03-19T04:41:29;94117.75;;;3.31;42.92
59829;BME280;45708;51.848;107.620;2023-03-19T04:46:29;94114.78;;;3.47;43.33
59829;BME280;45708;51.848;107.620;2023-03-19T04:51:30;94104.34;;;3.74;42.72
59829;BME280;45708;51.848;107.620;2023-03-19T04:56:31;94101.53;;;3.62;43.15
59829;BME280;45708;51.848;107.620;2023-03-19T05:01:32;94088.88;;;3.65;42.69
59829;BME280;45708;51.848;107.620;2023-03-19T05:06:33;94085.25;;;3.80;42.52
59829;BME280;45708;51.848;107.620;2023-03-19T05:11:34;94076.00;;;3.97;42.53
59829;BME280;45708;51.848;107.620;2023-03-19T05:16:35;94060.28;;;4.23;43.21
59829;BME280;45708;51.848;107.620;2023-03-19T05:21:36;94060.25;;;4.43;41.89
59829;BME280;45708;51.848;107.620;2023-03-19T05:26:37;93987.53;;;4.07;41.11
59829;BME280;45708;51.848;107.620;2023-03-19T05:31:38;94042.94;;;4.42;41.27
59829;BME280;45708;51.848;107.620;2023-03-19T05:36:38;94037.69;;;4.49;41.04
59829;BME280;45708;51.848;107.620;2023-03-19T05:41:39;94019.91;;;4.64;41.14
59829;BME280;45708;51.848;107.620;2023-03-19T05:46:40;94008.03;;;4.68;41.28
59829;BME280;45708;51.848;107.620;2023-03-19T05:51:41;94001.34;;;4.72;40.81
59829;BME280;45708;51.848;107.620;2023-03-19T05:56:42;93996.69;;;4.81;40.87
59829;BME280;45708;51.848;107.620;2023-03-19T06:01:42;93986.19;;;4.87;41.24
59829;BME280;45708;51.848;107.620;2023-03-19T06:06:43;93978.59;;;5.11;41.25
59829;BME280;45708;51.848;107.620;2023-03-19T06:11:44;93958.78;;;5.22;40.77
59829;BME280;45708;51.848;107.620;2023-03-19T06:16:45;93940.59;;;5.27;40.59
59829;BME280;45708;51.848;107.620;2023-03-19T06:21:45;93942.50;;;5.38;40.94
59829;BME280;45708;51.848;107.620;2023-03-19T06:26:46;93927.41;;;5.58;40.52
59829;BME280;45708;51.848;107.620;2023-03-19T06:31:47;93932.78;;;5.88;40.31
59829;BME280;45708;51.848;107.620;2023-03-19T06:36:48;93922.47;;;5.93;39.78
59829;BME280;45708;51.848;107.620;2023-03-19T06:41:49;93912.25;;;5.85;39.82
59829;BME280;45708;51.848;107.620;2023-03-19T06:46:49;93919.25;;;6.09;39.35
59829;BME280;45708;51.848;107.620;2023-03-19T06:51:50;93906.72;;;6.12;38.95
59829;BME280;45708;51.848;107.620;2023-03-19T06:56:51;93889.09;;;6.00;38.61
59829;BME280;45708;51.848;107.620;2023-03-19T07:01:52;93884.59;;;6.07;38.80
59829;BME280;45708;51.848;107.620;2023-03-19T07:06:53;93882.91;;;6.13;38.71
59829;BME280;45708;51.848;107.620;2023-03-19T07:11:54;93887.19;;;6.26;38.96
59829;BME280;45708;51.848;107.620;2023-03-19T07:16:55;93872.75;;;6.35;38.20
59829;BME280;45708;51.848;107.620;2023-03-19T07:21:57;93875.66;;;6.45;37.68
59829;BME280;45708;51.848;107.620;2023-03-19T07:26:58;93870.41;;;6.45;38.22
59829;BME280;45708;51.848;107.620;2023-03-19T07:31:59;93861.06;;;6.49;38.08
59829;BME280;45708;51.848;107.620;2023-03-19T07:37:00;93853.41;;;6.48;37.23
59829;BME280;45708;51.848;107.620;2023-03-19T07:42:01;93830.03;;;6.46;38.19
59829;BME280;45708;51.848;107.620;2023-03-19T07:47:01;93838.28;;;6.73;37.76
59829;BME280;45708;51.848;107.620;2023-03-19T07:52:02;93829.16;;;6.76;37.00
59829;BME280;45708;51.848;107.620;2023-03-19T07:57:03;93829.88;;;6.83;36.74
59829;BME280;45708;51.848;107.620;2023-03-19T08:02:04;93811.75;;;6.81;36.94
59829;BME280;45708;51.848;107.620;2023-03-19T08:07:09;93808.41;;;6.86;37.20
59829;BME280;45708;51.848;107.620;2023-03-19T08:12:14;93785.91;;;6.78;36.27
59829;BME280;45708;51.848;107.620;2023-03-19T08:17:15;93787.44;;;6.86;36.18
59829;BME280;45708;51.848;107.620;2023-03-19T08:22:16;93799.75;;;6.85;36.56
59829;BME280;45708;51.848;107.620;2023-03-19T08:27:17;93791.19;;;6.90;36.33
59829;BME280;45708;51.848;107.620;2023-03-19T08:32:18;93778.88;;;6.90;36.61
59829;BME280;45708;51.848;107.620;2023-03-19T08:37:19;93760.72;;;6.89;36.39
59829;BME280;45708;51.848;107.620;2023-03-19T08:42:20;93758.19;;;6.94;36.41
59829;BME280;45708;51.848;107.620;2023-03-19T08:47:21;93750.09;;;6.95;36.41
59829;BME280;45708;51.848;107.620;2023-03-19T08:52:22;93740.28;;;6.91;36.71
59829;BME280;45708;51.848;107.620;2023-03-19T08:57:23;93736.41;;;6.93;36.95
59829;BME280;45708;51.848;107.620;2023-03-19T09:02:24;93735.03;;;6.91;37.53
59829;BME280;45708;51.848;107.620;2023-03-19T09:07:25;93726.81;;;6.87;36.51
59829;BME280;45708;51.848;107.620;2023-03-19T09:12:26;93670.38;;;6.61;36.79
59829;BME280;45708;51.848;107.620;2023-03-19T09:17:27;93712.19;;;6.91;36.35
59829;BME280;45708;51.848;107.620;2023-03-19T09:22:28;93693.63;;;6.69;36.34
59829;BME280;45708;51.848;107.620;2023-03-19T09:27:29;93694.97;;;6.60;36.27
59829;BME280;45708;51.848;107.620;2023-03-19T09:32:30;93699.88;;;6.57;36.99
59829;BME280;45708;51.848;107.620;2023-03-19T09:37:31;93674.91;;;6.43;36.52
59829;BME280;45708;51.848;107.620;2023-03-19T09:42:48;93686.31;;;6.48;37.30
59829;BME280;45708;51.848;107.620;2023-03-19T09:47:57;93678.19;;;6.38;37.46
59829;BME280;45708;51.848;107.620;2023-03-19T09:53:11;93677.41;;;6.26;36.71
59829;BME280;45708;51.848;107.620;2023-03-19T09:58:18;93670.31;;;6.15;37.29
59829;BME280;45708;51.848;107.620;2023-03-19T10:03:48;93674.06;;;6.07;37.14
59829;BME280;45708;51.848;107.620;2023-03-19T10:09:28;93653.38;;;5.87;37.36
59829;BME280;45708;51.848;107.620;2023-03-19T10:14:39;93666.72;;;5.86;37.03
59829;BME280;45708;51.848;107.620;2023-03-19T10:24:49;93659.19;;;5.47;37.33
59829;BME280;45708;51.848;107.620;2023-03-19T10:29:51;93658.19;;;5.30;37.34
59829;BME280;45708;51.848;107.620;2023-03-19T10:34:52;93662.88;;;5.10;38.29
59829;BME280;45708;51.848;107.620;2023-03-19T10:39:58;93658.38;;;4.80;38.64
59829;BME280;45708;51.848;107.620;2023-03-19T10:50:03;93659.03;;;4.14;39.60
59829;BME280;45708;51.848;107.620;2023-03-19T10:55:14;93660.84;;;3.89;39.93
59829;BME280;45708;51.848;107.620;2023-03-19T11:00:20;93655.41;;;3.65;40.51
59829;BME280;45708;51.848;107.620;2023-03-19T11:05:27;93653.53;;;3.41;40.51
59829;BME280;45708;51.848;107.620;2023-03-19T11:10:31;93657.25;;;3.20;41.45
59829;BME280;45708;51.848;107.620;2023-03-19T11:15:36;93655.56;;;3.01;41.55
59829;BME280;45708;51.848;107.620;2023-03-19T11:20:37;93658.59;;;2.91;42.48
59829;BME280;45708;51.848;107.620;2023-03-19T11:25:39;93662.66;;;2.74;43.05
59829;BME280;45708;51.848;107.620;2023-03-19T11:36:12;93668.38;;;2.31;44.20
59829;BME280;45708;51.848;107.620;2023-03-19T11:46:31;93672.22;;;1.96;45.07
59829;BME280;45708;51.848;107.620;2023-03-19T12:28:23;93647.75;;;0.70;48.11
59829;BME280;45708;51.848;107.620;2023-03-19T12:39:09;93656.84;;;0.52;49.08
59829;BME280;45708;51.848;107.620;2023-03-19T12:44:31;93633.13;;;0.21;49.31
59829;BME280;45708;51.848;107.620;2023-03-19T12:49:41;93642.28;;;0.17;50.92
59829;BME280;45708;51.848;107.620;2023-03-19T12:54:49;93633.66;;;0.10;51.50
59829;BME280;45708;51.848;107.620;2023-03-19T13:10:22;93632.28;;;-0.42;52.79
59829;BME280;45708;51.848;107.620;2023-03-19T13:15:34;93632.47;;;-0.65;53.59
59829;BME280;45708;51.848;107.620;2023-03-19T13:26:14;93622.53;;;-1.04;54.78
59829;BME280;45708;51.848;107.620;2023-03-19T13:31:19;93571.91;;;-1.43;55.66
59829;BME280;45708;51.848;107.620;2023-03-19T13:36:21;93597.09;;;-1.37;55.59
59829;BME280;45708;51.848;107.620;2023-03-19T13:46:39;93600.88;;;-1.54;57.10
59829;BME280;45708;51.848;107.620;2023-03-19T13:51:40;93599.38;;;-1.63;56.75
59829;BME280;45708;51.848;107.620;2023-03-19T13:57:10;93587.53;;;-1.72;56.48
59829;BME280;45708;51.848;107.620;2023-03-19T14:07:25;93591.81;;;-1.79;57.80
59829;BME280;45708;51.848;107.620;2023-03-19T14:12:36;93582.66;;;-1.97;58.37
59829;BME280;45708;51.848;107.620;2023-03-19T14:27:59;93579.50;;;-2.07;57.95
59829;BME280;45708;51.848;107.620;2023-03-19T14:33:12;93581.94;;;-2.20;57.41
59829;BME280;45708;51.848;107.620;2023-03-19T14:38:27;93575.22;;;-2.29;58.83
59829;BME280;45708;51.848;107.620;2023-03-19T14:43:59;93569.19;;;-2.36;58.01
59829;BME280;45708;51.848;107.620;2023-03-19T14:54:27;93554.88;;;-2.62;59.44
59829;BME280;45708;51.848;107.620;2023-03-19T14:59:36;93531.16;;;-2.80;59.94
59829;BME280;45708;51.848;107.620;2023-03-19T15:04:37;93544.34;;;-2.75;60.28
59829;BME280;45708;51.848;107.620;2023-03-19T15:09:38;93531.34;;;-2.67;60.26
59829;BME280;45708;51.848;107.620;2023-03-19T15:14:41;93529.38;;;-2.65;60.15
59829;BME280;45708;51.848;107.620;2023-03-19T15:19:45;93518.31;;;-2.73;60.55
59829;BME280;45708;51.848;107.620;2023-03-19T15:24:47;93517.25;;;-2.79;60.08
59829;BME280;45708;51.848;107.620;2023-03-19T15:29:48;93513.56;;;-2.85;60.62
59829;BME280;45708;51.848;107.620;2023-03-19T15:34:55;93503.50;;;-2.94;60.90
59829;BME280;45708;51.848;107.620;2023-03-19T15:39:57;93495.47;;;-2.99;60.73
59829;BME280;45708;51.848;107.620;2023-03-19T15:45:07;93489.41;;;-3.07;61.69
59829;BME280;45708;51.848;107.620;2023-03-19T15:50:15;93490.47;;;-3.16;61.58
59829;BME280;45708;51.848;107.620;2023-03-19T15:55:17;93491.13;;;-3.22;61.88
59829;BME280;45708;51.848;107.620;2023-03-19T16:00:18;93488.28;;;-3.27;62.40
59829;BME280;45708;51.848;107.620;2023-03-19T16:05:26;93475.81;;;-3.38;62.75
59829;BME280;45708;51.848;107.620;2023-03-19T16:15:30;93473.03;;;-3.37;62.71
59829;BME280;45708;51.848;107.620;2023-03-19T16:20:40;93478.09;;;-3.43;62.55
59829;BME280;45708;51.848;107.620;2023-03-19T16:25:43;93464.91;;;-3.48;62.96
59829;BME280;45708;51.848;107.620;2023-03-19T16:30:47;93460.72;;;-3.49;63.15
59829;BME280;45708;51.848;107.620;2023-03-19T16:35:50;93460.88;;;-3.51;64.46
59829;BME280;45708;51.848;107.620;2023-03-19T16:41:17;93446.44;;;-3.37;63.56
59829;BME280;45708;51.848;107.620;2023-03-19T16:46:23;93438.06;;;-3.39;63.25
59829;BME280;45708;51.848;107.620;2023-03-19T16:51:24;93433.53;;;-3.22;64.15
59829;BME280;45708;51.848;107.620;2023-03-19T16:56:25;93426.88;;;-3.17;62.67
59829;BME280;45708;51.848;107.620;2023-03-19T17:01:26;93424.34;;;-3.25;63.25
59829;BME280;45708;51.848;107.620;2023-03-19T17:06:27;93416.97;;;-3.28;63.62
59829;BME280;45708;51.848;107.620;2023-03-19T17:11:38;93411.53;;;-3.33;64.07
59829;BME280;45708;51.848;107.620;2023-03-19T17:16:40;93374.81;;;-3.43;64.68
59829;BME280;45708;51.848;107.620;2023-03-19T17:21:41;93394.16;;;-3.24;64.27
59829;BME280;45708;51.848;107.620;2023-03-19T17:26:42;93391.75;;;-3.26;64.18
59829;BME280;45708;51.848;107.620;2023-03-19T17:31:43;93377.34;;;-3.35;65.19
59829;BME280;45708;51.848;107.620;2023-03-19T17:36:50;93381.44;;;-3.26;64.50
59829;BME280;45708;51.848;107.620;2023-03-19T17:41:52;93384.56;;;-3.30;65.07
59829;BME280;45708;51.848;107.620;2023-03-19T17:46:53;93376.78;;;-3.45;64.85
59829;BME280;45708;51.848;107.620;2023-03-19T17:51:56;93378.53;;;-3.60;65.43
59829;BME280;45708;51.848;107.620;2023-03-19T17:56:57;93381.81;;;-3.67;65.05
59829;BME280;45708;51.848;107.620;2023-03-19T18:01:58;93326.81;;;-4.05;64.88
59829;BME280;45708;51.848;107.620;2023-03-19T18:06:59;93376.97;;;-3.84;65.41
59829;BME280;45708;51.848;107.620;2023-03-19T18:12:00;93382.38;;;-3.94;64.87
59829;BME280;45708;51.848;107.620;2023-03-19T18:17:01;93372.28;;;-4.04;65.22
59829;BME280;45708;51.848;107.620;2023-03-19T18:22:15;93372.88;;;-4.16;65.99
59829;BME280;45708;51.848;107.620;2023-03-19T18:27:16;93378.41;;;-4.28;66.92
59829;BME280;45708;51.848;107.620;2023-03-19T18:32:24;93359.09;;;-4.32;67.43
59829;BME280;45708;51.848;107.620;2023-03-19T18:37:26;93353.78;;;-4.30;66.58
59829;BME280;45708;51.848;107.620;2023-03-19T18:42:27;93349.31;;;-4.36;67.65
59829;BME280;45708;51.848;107.620;2023-03-19T18:47:28;93338.03;;;-4.35;68.07
59829;BME280;45708;51.848;107.620;2023-03-19T18:52:29;93330.47;;;-4.37;66.48
59829;BME280;45708;51.848;107.620;2023-03-19T18:57:30;93329.50;;;-4.36;69.28
59829;BME280;45708;51.848;107.620;2023-03-19T19:02:33;93313.34;;;-4.30;68.34
59829;BME280;45708;51.848;107.620;2023-03-19T19:07:34;93324.28;;;-4.28;67.30
59829;BME280;45708;51.848;107.620;2023-03-19T19:12:35;93318.41;;;-4.44;66.64
59829;BME280;45708;51.848;107.620;2023-03-19T19:17:36;93298.78;;;-4.68;66.83
59829;BME280;45708;51.848;107.620;2023-03-19T19:22:37;93316.81;;;-4.68;67.32
59829;BME280;45708;51.848;107.620;2023-03-19T19:27:38;93303.66;;;-4.81;67.55
59829;BME280;45708;51.848;107.620;2023-03-19T19:32:38;93307.88;;;-4.80;67.17
59829;BME280;45708;51.848;107.620;2023-03-19T19:37:40;93302.59;;;-4.87;66.74
59829;BME280;45708;51.848;107.620;2023-03-19T19:42:41;93315.28;;;-4.85;67.43
59829;BME280;45708;51.848;107.620;2023-03-19T19:47:43;93320.78;;;-4.88;66.43
59829;BME280;45708;51.848;107.620;2023-03-19T19:52:44;93310.31;;;-4.87;66.28
59829;BME280;45708;51.848;107.620;2023-03-19T19:57:45;93300.69;;;-4.93;67.45
59829;BME280;45708;51.848;107.620;2023-03-19T20:02:47;93295.75;;;-5.03;66.50
59829;BME280;45708;51.848;107.620;2023-03-19T20:07:52;93294.81;;;-5.10;67.50
59829;BME280;45708;51.848;107.620;2023-03-19T20:12:57;93305.16;;;-5.18;68.51
59829;BME280;45708;51.848;107.620;2023-03-19T20:18:03;93291.31;;;-5.17;68.83
59829;BME280;45708;51.848;107.620;2023-03-19T20:23:04;93285.72;;;-5.21;69.38
59829;BME280;45708;51.848;107.620;2023-03-19T20:28:05;93288.13;;;-5.27;70.81
59829;BME280;45708;51.848;107.620;2023-03-19T20:33:06;93278.06;;;-5.45;69.45
59829;BME280;45708;51.848;107.620;2023-03-19T20:38:09;93291.38;;;-5.33;69.38
59829;BME280;45708;51.848;107.620;2023-03-19T20:48:24;93287.84;;;-5.32;67.92
59829;BME280;45708;51.848;107.620;2023-03-19T20:53:25;93295.91;;;-5.43;67.69
59829;BME280;45708;51.848;107.620;2023-03-19T20:58:32;93267.03;;;-5.62;67.69
59829;BME280;45708;51.848;107.620;2023-03-19T21:03:33;93293.88;;;-5.56;68.59
59829;BME280;45708;51.848;107.620;2023-03-19T21:08:42;93290.19;;;-5.62;68.81
59829;BME280;45708;51.848;107.620;2023-03-19T21:13:45;93291.47;;;-5.66;68.46
59829;BME280;45708;51.848;107.620;2023-03-19T21:18:46;93298.56;;;-5.68;68.78
59829;BME280;45708;51.848;107.620;2023-03-19T21:23:53;93287.03;;;-5.80;68.27
59829;BME280;45708;51.848;107.620;2023-03-19T21:29:01;93295.69;;;-5.81;68.03
59829;BME280;45708;51.848;107.620;2023-03-19T21:34:03;93286.13;;;-5.95;68.63
59829;BME280;45708;51.848;107.620;2023-03-19T21:39:04;93303.16;;;-5.94;68.19
59829;BME280;45708;51.848;107.620;2023-03-19T21:44:06;93304.44;;;-5.98;68.14
59829;BME280;45708;51.848;107.620;2023-03-19T21:49:11;93326.13;;;-6.09;67.89
59829;BME280;45708;51.848;107.620;2023-03-19T21:54:11;93324.06;;;-6.14;67.72
59829;BME280;45708;51.848;107.620;2023-03-19T21:59:17;93307.84;;;-6.30;68.72
59829;BME280;45708;51.848;107.620;2023-03-19T22:04:18;93311.38;;;-6.31;69.73
59829;BME280;45708;51.848;107.620;2023-03-19T22:09:19;93311.84;;;-6.44;69.04
59829;BME280;45708;51.848;107.620;2023-03-19T22:14:24;93315.69;;;-6.48;70.21
59829;BME280;45708;51.848;107.620;2023-03-19T22:19:26;93313.44;;;-6.59;70.54
59829;BME280;45708;51.848;107.620;2023-03-19T22:24:27;93310.84;;;-6.67;71.07
59829;BME280;45708;51.848;107.620;2023-03-19T22:29:30;93307.66;;;-6.69;70.06
59829;BME280;45708;51.848;107.620;2023-03-19T22:34:31;93303.78;;;-6.65;69.86
59829;BME280;45708;51.848;107.620;2023-03-19T22:39:32;93306.38;;;-6.73;70.74
59829;BME280;45708;51.848;107.620;2023-03-19T22:44:33;93306.19;;;-6.80;70.71
59829;BME280;45708;51.848;107.620;2023-03-19T22:49:34;93307.63;;;-6.86;71.44
59829;BME280;45708;51.848;107.620;2023-03-19T22:54:35;93318.06;;;-6.79;70.33
59829;BME280;45708;51.848;107.620;2023-03-19T22:59:35;93322.69;;;-6.83;69.86
59829;BME280;45708;51.848;107.620;2023-03-19T23:04:36;93323.03;;;-6.86;70.73
59829;BME280;45708;51.848;107.620;2023-03-19T23:09:37;93317.41;;;-6.89;72.02
59829;BME280;45708;51.848;107.620;2023-03-19T23:14:38;93326.88;;;-6.90;72.54
59829;BME280;45708;51.848;107.620;2023-03-19T23:19:39;93327.84;;;-6.83;72.98
59829;BME280;45708;51.848;107.620;2023-03-19T23:24:39;93326.59;;;-6.70;72.74
59829;BME280;45708;51.848;107.620;2023-03-19T23:29:42;93331.06;;;-6.64;73.32
59829;BME280;45708;51.848;107.620;2023-03-19T23:34:43;93336.25;;;-6.56;72.73
59829;BME280;45708;51.848;107.620;2023-03-19T23:39:44;93336.91;;;-6.38;72.84
59829;BME280;45708;51.848;107.620;2023-03-19T23:44:45;93333.94;;;-5.23;71.25
59829;BME280;45708;51.848;107.620;2023-03-19T23:49:46;93332.63;;;-2.91;69.17
59829;BME280;45708;51.848;107.620;2023-03-19T23:54:47;93330.66;;;-1.74;65.70
59829;BME280;45708;51.848;107.620;2023-03-19T23:59:49;93315.53;;;0.53;60.37
